createdAt,value
2018-06-14T00:00:49.883Z,3.6
2018-06-14T00:02:50.013Z,3.6
2018-06-14T00:04:50.271Z,4.1
2018-06-14T00:06:49.515Z,3.8
2018-06-14T00:08:49.585Z,3.8
2018-06-14T00:10:49.656Z,3.8
2018-06-14T00:12:49.777Z,4.4
2018-06-14T00:14:49.886Z,3.9
2018-06-14T00:16:50.121Z,3.9
2018-06-14T00:18:50.242Z,3.7
2018-06-14T00:20:50.365Z,3.7
2018-06-14T00:22:49.508Z,4.5
2018-06-14T00:24:49.600Z,3.4
2018-06-14T00:26:49.836Z,3.4
2018-06-14T00:28:49.926Z,4.9
2018-06-14T00:30:50.027Z,4.9
2018-06-14T00:32:50.161Z,3.2
2018-06-14T00:34:49.498Z,4.5
2018-06-14T00:36:49.658Z,4.5
2018-06-14T00:38:49.761Z,5.4
2018-06-14T00:40:49.901Z,5.4
2018-06-14T00:42:50.013Z,3.5
2018-06-14T00:44:50.140Z,4.4
2018-06-14T00:46:49.517Z,4.4
2018-06-14T00:48:49.622Z,6.5
2018-06-14T00:50:49.728Z,6.5
2018-06-14T00:52:49.930Z,3.7
2018-06-14T00:54:50.050Z,5.3
2018-06-14T00:56:50.309Z,4.4
2018-06-14T00:58:50.432Z,4.4
2018-06-14T01:00:49.570Z,4.3
2018-06-14T01:02:49.745Z,3.5
2018-06-14T01:04:50.168Z,3.4
2018-06-14T01:06:49.448Z,3.4
2018-06-14T01:08:49.570Z,3.6
2018-06-14T01:10:49.689Z,4.9
2018-06-14T01:12:49.858Z,3.5
2018-06-14T01:14:50.094Z,3.4
2018-06-14T01:16:50.437Z,3.4
2018-06-14T01:18:49.549Z,3.8
2018-06-14T01:20:49.696Z,3.8
2018-06-14T01:22:49.815Z,3.7
2018-06-14T01:24:49.907Z,4.0
2018-06-14T01:26:50.212Z,4.0
2018-06-14T01:28:50.391Z,3.7
2018-06-14T01:30:49.595Z,4.3
2018-06-14T01:32:49.744Z,4.3
2018-06-14T01:34:50.022Z,3.9
2018-06-14T01:36:49.516Z,3.9
2018-06-14T01:38:49.678Z,3.6
2018-06-14T01:40:49.792Z,4.1
2018-06-14T01:42:49.872Z,4.3
2018-06-14T01:44:49.998Z,4.3
2018-06-14T01:46:50.299Z,3.8
2018-06-14T01:48:50.406Z,3.9
2018-06-14T01:50:49.507Z,5.1
2018-06-14T01:52:49.682Z,3.5
2018-06-14T01:54:49.913Z,3.5
2018-06-14T01:56:50.078Z,4.5
2018-06-14T01:58:50.233Z,3.5
2018-06-14T02:00:50.362Z,3.6
2018-06-14T02:02:49.442Z,3.9
2018-06-14T02:04:49.949Z,3.9
2018-06-14T02:06:50.214Z,5.3
2018-06-14T02:08:50.002Z,4.6
2018-06-14T02:10:50.177Z,4.5
2018-06-14T02:12:50.318Z,4.5
2018-06-14T02:14:50.432Z,4.3
2018-06-14T02:16:49.729Z,4.3
2018-06-14T02:18:49.882Z,5.1
2018-06-14T02:20:50.079Z,4.2
2018-06-14T02:22:50.220Z,4.2
2018-06-14T02:24:50.290Z,4.0
2018-06-14T02:26:49.568Z,4.6
2018-06-14T02:28:49.693Z,6.7
2018-06-14T02:30:49.848Z,6.7
2018-06-14T02:32:49.970Z,4.3
2018-06-14T02:34:49.452Z,3.8
2018-06-14T02:36:49.701Z,4.7
2018-06-14T02:38:49.883Z,5.0
2018-06-14T02:40:50.079Z,5.0
2018-06-14T02:42:50.265Z,4.9
2018-06-14T02:44:50.397Z,4.9
2018-06-14T02:46:49.697Z,4.6
2018-06-14T02:48:49.835Z,4.9
2018-06-14T02:50:50.010Z,4.9
2018-06-14T02:52:50.282Z,6.7
2018-06-14T02:54:50.510Z,4.3
2018-06-14T02:56:49.778Z,6.2
2018-06-14T02:58:49.967Z,4.6
2018-06-14T03:00:50.103Z,4.6
2018-06-14T03:02:50.258Z,6.0
2018-06-14T03:04:49.556Z,6.0
2018-06-14T03:06:49.774Z,4.8
2018-06-14T03:08:49.945Z,4.2
2018-06-14T03:10:50.103Z,5.9
2018-06-14T03:12:50.315Z,5.9
2018-06-14T03:14:49.501Z,5.3
2018-06-14T03:16:49.889Z,6.8
2018-06-14T03:18:50.046Z,5.8
2018-06-14T03:20:50.142Z,5.8
2018-06-14T03:22:50.303Z,4.3
2018-06-14T03:24:50.405Z,4.3
2018-06-14T03:26:49.647Z,4.9
2018-06-14T03:28:49.808Z,7.0
2018-06-14T03:30:49.946Z,7.0
2018-06-14T03:32:50.161Z,6.1
2018-06-14T03:34:49.436Z,6.4
2018-06-14T03:36:49.814Z,5.5
2018-06-14T03:38:49.913Z,5.5
2018-06-14T03:40:50.137Z,6.2
2018-06-14T03:42:49.969Z,5.0
2018-06-14T03:44:50.090Z,5.0
2018-06-14T03:46:50.387Z,6.4
2018-06-14T03:48:49.586Z,6.4
2018-06-14T03:50:49.732Z,5.2
2018-06-14T03:52:49.889Z,5.2
2018-06-14T03:54:50.057Z,5.8
2018-06-14T03:56:50.407Z,7.4
2018-06-14T03:58:49.517Z,7.4
2018-06-14T04:00:49.709Z,5.1
2018-06-14T04:02:49.835Z,5.4
2018-06-14T04:04:50.148Z,5.4
2018-06-14T04:06:50.400Z,7.0
2018-06-14T04:08:49.539Z,7.0
2018-06-14T04:10:49.701Z,6.7
2018-06-14T04:12:49.930Z,6.4
2018-06-14T04:14:50.068Z,5.2
2018-06-14T04:16:50.260Z,5.2
2018-06-14T04:18:50.384Z,5.3
2018-06-14T04:20:49.521Z,5.3
2018-06-14T04:22:49.651Z,6.9
2018-06-14T04:24:49.785Z,5.8
2018-06-14T04:26:49.498Z,5.8
2018-06-14T04:28:49.632Z,5.3
2018-06-14T04:30:49.772Z,5.3
2018-06-14T04:32:49.948Z,5.4
2018-06-14T04:34:49.522Z,5.4
2018-06-14T04:36:49.737Z,7.3
2018-06-14T04:38:49.858Z,7.3
2018-06-14T04:40:49.975Z,7.2
2018-06-14T04:42:50.185Z,7.2
2018-06-14T04:44:50.305Z,5.9
2018-06-14T04:46:49.608Z,5.2
2018-06-14T04:48:49.926Z,5.2
2018-06-14T04:50:50.080Z,5.0
2018-06-14T04:52:50.291Z,5.3
2018-06-14T04:54:50.421Z,5.6
2018-06-14T04:56:49.689Z,5.4
2018-06-14T04:58:49.809Z,5.4
2018-06-14T05:00:49.938Z,7.5
2018-06-14T05:02:50.048Z,5.0
2018-06-14T05:04:49.580Z,9.2
2018-06-14T05:06:49.869Z,9.2
2018-06-14T05:08:49.965Z,5.2
2018-06-14T05:10:50.081Z,5.5
2018-06-14T05:12:50.222Z,5.5
2018-06-14T05:14:50.352Z,6.4
2018-06-14T05:16:49.659Z,6.4
2018-06-14T05:18:49.673Z,11.0
2018-06-14T05:20:49.801Z,14.2
2018-06-14T05:22:49.800Z,8.1
2018-06-14T05:24:49.759Z,38.9
2018-06-14T05:26:49.864Z,38.9
2018-06-14T05:28:49.853Z,7.0
2018-06-14T05:30:49.802Z,6.5
2018-06-14T05:32:49.749Z,8.8
2018-06-14T05:34:49.884Z,8.8
2018-06-14T05:36:50.421Z,8.1
2018-06-14T05:38:50.383Z,10.5
2018-06-14T05:40:49.577Z,6.4
2018-06-14T05:42:49.790Z,5.5
2018-06-14T05:44:49.938Z,5.5
2018-06-14T05:46:50.285Z,8.2
2018-06-14T05:48:50.398Z,6.8
2018-06-14T05:50:49.500Z,9.1
2018-06-14T05:52:49.649Z,9.1
2018-06-14T05:54:49.794Z,13.1
2018-06-14T05:56:50.035Z,7.6
2018-06-14T05:58:50.186Z,9.2
2018-06-14T06:00:50.398Z,18.1
2018-06-14T06:02:49.546Z,11.3
2018-06-14T06:04:50.289Z,7.1
2018-06-14T06:06:49.583Z,7.1
2018-06-14T06:08:49.707Z,13.1
2018-06-14T06:10:49.831Z,10.4
2018-06-14T06:12:50.002Z,6.6
2018-06-14T06:14:50.121Z,6.6
2018-06-14T06:16:50.352Z,13.9
2018-06-14T06:18:49.491Z,5.9
2018-06-14T06:20:49.603Z,11.2
2018-06-14T06:22:49.740Z,6.9
2018-06-14T06:24:49.862Z,6.9
2018-06-14T06:26:50.173Z,7.5
2018-06-14T06:28:49.779Z,6.2
2018-06-14T06:30:50.275Z,9.9
2018-06-14T06:32:50.411Z,9.9
2018-06-14T06:34:49.819Z,7.3
2018-06-14T06:36:50.314Z,6.8
2018-06-14T06:38:49.529Z,5.3
2018-06-14T06:40:50.208Z,5.3
2018-06-14T06:42:50.420Z,6.9
2018-06-14T06:44:49.698Z,7.6
2018-06-14T06:46:49.984Z,8.0
2018-06-14T06:48:50.217Z,5.6
2018-06-14T06:50:50.428Z,5.6
2018-06-14T06:52:49.696Z,5.9
2018-06-14T06:54:49.881Z,6.3
2018-06-14T06:56:50.098Z,4.4
2018-06-14T06:58:50.305Z,5.6
2018-06-14T07:00:49.764Z,5.6
2018-06-14T07:02:49.971Z,4.6
2018-06-14T07:04:50.418Z,6.5
2018-06-14T07:06:49.882Z,4.2
2018-06-14T07:08:49.977Z,5.9
2018-06-14T07:10:50.132Z,6.1
2018-06-14T07:12:50.314Z,6.1
2018-06-14T07:14:49.491Z,6.3
2018-06-14T07:16:49.864Z,5.2
2018-06-14T07:18:49.994Z,4.3
2018-06-14T07:20:50.264Z,4.8
2018-06-14T07:22:49.480Z,4.8
2018-06-14T07:24:49.644Z,4.3
2018-06-14T07:26:49.862Z,5.7
2018-06-14T07:28:50.069Z,7.4
2018-06-14T07:30:50.214Z,5.5
2018-06-14T07:32:50.435Z,5.5
2018-06-14T07:34:49.838Z,5.8
2018-06-14T07:36:50.104Z,4.1
2018-06-14T07:38:50.216Z,6.6
2018-06-14T07:40:50.404Z,6.6
2018-06-14T07:42:49.669Z,5.8
2018-06-14T07:44:49.836Z,4.7
2018-06-14T07:46:50.099Z,5.3
2018-06-14T07:48:50.259Z,8.1
2018-06-14T07:50:50.379Z,8.1
2018-06-14T07:52:49.466Z,7.6
2018-06-14T07:54:49.571Z,8.1
2018-06-14T07:56:50.015Z,5.8
2018-06-14T07:58:50.181Z,5.8
2018-06-14T08:00:50.316Z,5.5
2018-06-14T08:02:50.395Z,5.9
2018-06-14T08:04:49.716Z,4.3
2018-06-14T08:06:50.041Z,4.9
2018-06-14T08:08:50.220Z,4.8
2018-06-14T08:10:50.358Z,4.8
2018-06-14T08:12:49.657Z,3.8
2018-06-14T08:14:49.773Z,3.8
2018-06-14T08:16:50.081Z,5.7
2018-06-14T08:18:50.237Z,5.7
2018-06-14T08:20:50.412Z,3.8
2018-06-14T08:22:49.515Z,4.5
2018-06-14T08:24:49.765Z,3.7
2018-06-14T08:26:50.091Z,4.4
2018-06-14T08:28:50.180Z,4.4
2018-06-14T08:30:50.341Z,4.1
2018-06-14T08:32:49.460Z,4.4
2018-06-14T08:34:49.825Z,4.7
2018-06-14T08:36:50.119Z,4.7
2018-06-14T08:38:50.302Z,6.1
2018-06-14T08:40:50.467Z,6.1
2018-06-14T08:42:49.600Z,5.1
2018-06-14T08:44:49.790Z,2.7
2018-06-14T08:46:50.436Z,4.8
2018-06-14T08:48:49.649Z,4.8
2018-06-14T08:50:49.785Z,2.9
2018-06-14T08:52:49.876Z,4.8
2018-06-14T08:54:49.980Z,3.2
2018-06-14T08:56:50.194Z,3.1
2018-06-14T08:58:50.376Z,3.1
2018-06-14T09:00:49.507Z,5.0
2018-06-14T09:02:49.720Z,8.3
2018-06-14T09:04:49.979Z,4.4
2018-06-14T09:06:50.381Z,4.4
2018-06-14T09:08:49.520Z,3.7
2018-06-14T09:10:49.630Z,2.9
2018-06-14T09:12:49.823Z,2.9
2018-06-14T09:14:49.929Z,5.3
2018-06-14T09:16:50.332Z,5.3
2018-06-14T09:18:49.556Z,3.2
2018-06-14T09:20:49.672Z,4.1
2018-06-14T09:22:49.866Z,3.5
2018-06-14T09:24:50.000Z,3.5
2018-06-14T09:26:50.229Z,3.9
2018-06-14T09:28:50.351Z,2.5
2018-06-14T09:30:49.519Z,2.6
2018-06-14T09:32:49.662Z,2.6
2018-06-14T09:34:50.107Z,2.6
2018-06-14T09:36:49.432Z,4.2
2018-06-14T09:38:49.633Z,4.2
2018-06-14T09:40:49.748Z,2.3
2018-06-14T09:42:49.923Z,2.2
2018-06-14T09:44:49.603Z,2.2
2018-06-14T09:46:49.952Z,3.5
2018-06-14T09:48:50.118Z,3.2
2018-06-14T09:50:50.245Z,4.1
2018-06-14T09:52:49.490Z,4.4
2018-06-14T09:54:49.628Z,4.4
2018-06-14T09:56:49.895Z,3.6
2018-06-14T09:58:50.022Z,3.6
2018-06-14T10:00:50.286Z,3.2
2018-06-14T10:02:50.426Z,5.4
2018-06-14T10:04:49.814Z,5.4
2018-06-14T10:06:50.155Z,3.3
2018-06-14T10:08:50.381Z,3.6
2018-06-14T10:10:49.540Z,4.6
2018-06-14T10:12:49.744Z,4.6
2018-06-14T10:14:49.887Z,4.3
2018-06-14T10:16:50.192Z,4.3
2018-06-14T10:18:50.363Z,3.7
2018-06-14T10:20:49.462Z,3.4
2018-06-14T10:22:49.590Z,3.4
2018-06-14T10:24:49.683Z,3.4
2018-06-14T10:26:49.901Z,3.4
2018-06-14T10:28:50.031Z,4.1
2018-06-14T10:30:50.146Z,4.3
2018-06-14T10:32:50.327Z,3.6
2018-06-14T10:34:49.769Z,3.6
2018-06-14T10:36:50.027Z,3.8
2018-06-14T10:38:50.228Z,6.9
2018-06-14T10:40:50.407Z,3.5
2018-06-14T10:42:49.757Z,3.5
2018-06-14T10:44:49.928Z,4.8
2018-06-14T10:46:50.142Z,8.5
2018-06-14T10:48:50.283Z,5.2
2018-06-14T10:50:50.421Z,4.0
2018-06-14T10:52:49.505Z,4.0
2018-06-14T10:54:49.684Z,4.6
2018-06-14T10:56:49.953Z,4.0
2018-06-14T10:58:50.049Z,3.7
2018-06-14T11:00:50.228Z,6.8
2018-06-14T11:02:49.592Z,6.8
2018-06-14T11:04:49.929Z,3.8
2018-06-14T11:06:50.208Z,4.1
2018-06-14T11:08:50.367Z,5.3
2018-06-14T11:10:49.456Z,5.3
2018-06-14T11:12:49.598Z,4.7
2018-06-14T11:14:49.702Z,3.8
2018-06-14T11:16:49.941Z,4.0
2018-06-14T11:18:50.118Z,3.5
2018-06-14T11:20:50.302Z,3.5
2018-06-14T11:22:49.454Z,5.4
2018-06-14T11:24:49.602Z,5.4
2018-06-14T11:26:49.845Z,5.0
2018-06-14T11:28:49.968Z,5.0
2018-06-14T11:30:50.143Z,6.1
2018-06-14T11:32:50.351Z,5.5
2018-06-14T11:34:49.869Z,5.2
2018-06-14T11:36:50.142Z,5.0
2018-06-14T11:38:50.277Z,4.6
2018-06-14T11:40:50.407Z,5.7
2018-06-14T11:42:49.596Z,5.7
2018-06-14T11:44:49.741Z,6.1
2018-06-14T11:46:50.086Z,6.1
2018-06-14T11:48:50.276Z,4.1
2018-06-14T11:50:49.465Z,4.1
2018-06-14T11:52:49.734Z,5.4
2018-06-14T11:54:49.851Z,5.2
2018-06-14T11:56:50.109Z,4.4
2018-06-14T11:58:50.265Z,5.2
2018-06-14T12:00:50.350Z,5.2
2018-06-14T12:02:49.470Z,3.9
2018-06-14T12:04:49.831Z,3.8
2018-06-14T12:06:50.209Z,4.1
2018-06-14T12:08:50.359Z,4.7
2018-06-14T12:10:49.473Z,4.7
2018-06-14T12:12:49.618Z,3.8
2018-06-14T12:14:49.759Z,6.0
2018-06-14T12:16:50.050Z,6.0
2018-06-14T12:18:50.242Z,3.8
2018-06-14T12:20:50.399Z,3.8
2018-06-14T12:22:49.665Z,3.6
2018-06-14T12:24:49.813Z,4.5
2018-06-14T12:26:50.142Z,3.4
2018-06-14T12:28:50.289Z,3.4
2018-06-14T12:30:49.462Z,3.7
2018-06-14T12:32:49.549Z,4.1
2018-06-14T12:34:49.971Z,4.4
2018-06-14T12:36:50.253Z,4.4
2018-06-14T12:38:50.356Z,4.2
2018-06-14T12:40:49.670Z,3.9
2018-06-14T12:42:49.761Z,4.2
2018-06-14T12:44:49.900Z,8.8
2018-06-14T12:46:50.141Z,8.8
2018-06-14T12:48:50.249Z,4.8
2018-06-14T12:50:49.451Z,4.8
2018-06-14T12:52:49.634Z,3.7
2018-06-14T12:54:49.749Z,4.5
2018-06-14T12:56:50.096Z,4.5
2018-06-14T12:58:50.243Z,7.5
2018-06-14T13:00:50.433Z,4.4
2018-06-14T13:02:49.539Z,5.8
2018-06-14T13:04:49.772Z,5.5
2018-06-14T13:06:50.065Z,5.5
2018-06-14T13:08:50.368Z,6.0
2018-06-14T13:10:49.488Z,6.0
2018-06-14T13:12:49.678Z,4.1
2018-06-14T13:14:50.051Z,4.2
2018-06-14T13:16:50.057Z,4.5
2018-06-14T13:18:50.177Z,4.5
2018-06-14T13:20:50.321Z,6.7
2018-06-14T13:22:49.723Z,6.7
2018-06-14T13:24:49.860Z,8.5
2018-06-14T13:26:50.190Z,4.1
2018-06-14T13:28:50.350Z,4.1
2018-06-14T13:30:49.443Z,5.0
2018-06-14T13:32:49.756Z,4.4
2018-06-14T13:34:50.050Z,3.4
2018-06-14T13:36:50.334Z,3.4
2018-06-14T13:38:49.495Z,5.3
2018-06-14T13:40:49.648Z,4.2
2018-06-14T13:42:49.834Z,4.5
2018-06-14T13:44:49.788Z,3.6
2018-06-14T13:46:50.109Z,3.6
2018-06-14T13:48:50.330Z,4.9
2018-06-14T13:50:49.484Z,8.0
2018-06-14T13:52:49.671Z,8.0
2018-06-14T13:54:49.776Z,8.8
2018-06-14T13:56:49.989Z,8.8
2018-06-14T13:58:50.222Z,4.0
2018-06-14T14:00:50.435Z,3.7
2018-06-14T14:02:50.275Z,3.3
2018-06-14T14:04:49.805Z,3.3
2018-06-14T14:06:50.120Z,4.5
2018-06-14T14:08:50.208Z,3.5
2018-06-14T14:10:50.410Z,2.7
2018-06-14T14:12:49.566Z,3.0
2018-06-14T14:14:49.771Z,3.0
2018-06-14T14:16:50.019Z,3.0
2018-06-14T14:18:50.136Z,4.4
2018-06-14T14:20:50.236Z,4.4
2018-06-14T14:22:50.426Z,3.7
2018-06-14T14:24:49.575Z,3.7
2018-06-14T14:26:49.836Z,6.2
2018-06-14T14:28:49.970Z,4.5
2018-06-14T14:30:50.100Z,5.8
2018-06-14T14:32:50.231Z,5.8
2018-06-14T14:34:49.550Z,3.8
2018-06-14T14:36:49.819Z,4.6
2018-06-14T14:38:49.931Z,7.8
2018-06-14T14:40:50.070Z,3.3
2018-06-14T14:42:50.176Z,3.3
2018-06-14T14:44:50.423Z,3.6
2018-06-14T14:46:49.669Z,3.0
2018-06-14T14:48:49.846Z,3.9
2018-06-14T14:50:49.981Z,3.3
2018-06-14T14:52:50.066Z,5.2
2018-06-14T14:54:50.337Z,5.2
2018-06-14T14:56:49.680Z,4.1
2018-06-14T14:58:49.824Z,3.1
2018-06-14T15:00:49.939Z,3.1
2018-06-14T15:02:50.042Z,3.7
2018-06-14T15:04:50.346Z,3.7
2018-06-14T15:06:49.594Z,3.5
2018-06-14T15:08:49.781Z,5.4
2018-06-14T15:10:49.958Z,2.9
2018-06-14T15:12:50.039Z,2.9
2018-06-14T15:14:50.221Z,2.9
2018-06-14T15:16:49.522Z,3.1
2018-06-14T15:18:49.655Z,3.1
2018-06-14T15:20:49.815Z,3.1
2018-06-14T15:22:49.954Z,4.3
2018-06-14T15:24:50.094Z,4.3
2018-06-14T15:26:50.405Z,3.0
2018-06-14T15:28:49.586Z,4.8
2018-06-14T15:30:49.746Z,4.0
2018-06-14T15:32:49.855Z,4.0
2018-06-14T15:34:50.082Z,5.7
2018-06-14T15:36:50.362Z,3.1
2018-06-14T15:38:49.481Z,3.5
2018-06-14T15:40:49.735Z,3.5
2018-06-14T15:42:49.865Z,3.6
2018-06-14T15:44:50.170Z,2.5
2018-06-14T15:46:50.444Z,3.5
2018-06-14T15:48:49.663Z,2.5
2018-06-14T15:50:50.336Z,2.5
2018-06-14T15:52:49.540Z,3.0
2018-06-14T15:54:49.688Z,3.8
2018-06-14T15:56:49.939Z,2.7
2018-06-14T15:58:50.153Z,2.9
2018-06-14T16:00:50.323Z,2.9
2018-06-14T16:02:49.963Z,3.0
2018-06-14T16:04:50.267Z,3.6
2018-06-14T16:06:49.733Z,2.3
2018-06-14T16:08:49.864Z,2.9
2018-06-14T16:10:50.042Z,2.9
2018-06-14T16:12:49.651Z,2.8
2018-06-14T16:14:49.822Z,3.6
2018-06-14T16:16:50.051Z,3.4
2018-06-14T16:18:50.235Z,3.4
2018-06-14T16:20:50.422Z,4.4
2018-06-14T16:22:49.544Z,3.1
2018-06-14T16:24:49.746Z,4.2
2018-06-14T16:26:50.122Z,3.4
2018-06-14T16:28:49.697Z,3.4
2018-06-14T16:30:49.837Z,4.2
2018-06-14T16:32:50.028Z,6.2
2018-06-14T16:34:50.404Z,3.9
2018-06-14T16:36:49.631Z,3.9
2018-06-14T16:38:49.786Z,2.5
2018-06-14T16:40:49.945Z,2.9
2018-06-14T16:42:50.190Z,3.1
2018-06-14T16:44:50.366Z,3.4
2018-06-14T16:46:49.731Z,3.4
2018-06-14T16:48:49.877Z,2.5
2018-06-14T16:50:50.001Z,2.5
2018-06-14T16:52:50.129Z,3.1
2018-06-14T16:54:50.337Z,3.5
2018-06-14T16:56:49.577Z,3.5
2018-06-14T16:58:49.712Z,3.1
2018-06-14T17:00:49.854Z,3.1
2018-06-14T17:02:49.978Z,2.7
2018-06-14T17:04:50.352Z,2.6
2018-06-14T17:06:49.608Z,2.6
2018-06-14T17:08:49.735Z,3.0
2018-06-14T17:10:49.949Z,3.6
2018-06-14T17:12:50.214Z,3.0
2018-06-14T17:14:50.346Z,3.0
2018-06-14T17:16:49.654Z,2.8
2018-06-14T17:18:49.818Z,2.8
2018-06-14T17:20:49.951Z,5.2
2018-06-14T17:22:50.164Z,2.9
2018-06-14T17:24:50.313Z,3.0
2018-06-14T17:26:49.597Z,3.0
2018-06-14T17:28:49.691Z,3.7
2018-06-14T17:30:49.790Z,5.4
2018-06-14T17:32:50.157Z,4.0
2018-06-14T17:34:49.593Z,3.3
2018-06-14T17:36:49.889Z,3.3
2018-06-14T17:38:50.086Z,3.2
2018-06-14T17:40:50.280Z,4.1
2018-06-14T17:42:50.431Z,3.1
2018-06-14T17:44:49.638Z,3.1
2018-06-14T17:46:49.853Z,3.1
2018-06-14T17:48:49.973Z,4.4
2018-06-14T17:50:50.125Z,3.6
2018-06-14T17:52:50.353Z,3.4
2018-06-14T17:54:49.430Z,3.4
2018-06-14T17:56:49.835Z,3.7
2018-06-14T17:58:50.250Z,3.7
2018-06-14T18:00:50.399Z,3.0
2018-06-14T18:02:49.975Z,4.9
2018-06-14T18:04:49.552Z,4.9
2018-06-14T18:06:49.862Z,4.5
2018-06-14T18:08:50.017Z,3.0
2018-06-14T18:10:50.184Z,3.1
2018-06-14T18:12:49.474Z,3.1
2018-06-14T18:14:49.619Z,3.5
2018-06-14T18:16:49.884Z,3.5
2018-06-14T18:18:50.058Z,3.3
2018-06-14T18:20:50.231Z,4.4
2018-06-14T18:22:50.420Z,5.2
2018-06-14T18:24:49.564Z,5.2
2018-06-14T18:26:49.820Z,3.3
2018-06-14T18:28:49.986Z,3.3
2018-06-14T18:30:50.086Z,4.1
2018-06-14T18:32:50.280Z,4.1
2018-06-14T18:34:50.045Z,3.0
2018-06-14T18:36:50.350Z,2.8
2018-06-14T18:38:49.476Z,5.5
2018-06-14T18:40:49.606Z,5.5
2018-06-14T18:42:49.775Z,3.2
2018-06-14T18:44:49.989Z,4.2
2018-06-14T18:46:50.273Z,3.0
2018-06-14T18:48:49.536Z,5.0
2018-06-14T18:50:49.671Z,2.6
2018-06-14T18:52:49.854Z,2.6
2018-06-14T18:54:49.960Z,4.2
2018-06-14T18:56:50.166Z,2.7
2018-06-14T18:58:50.299Z,2.7
2018-06-14T19:00:49.546Z,4.1
2018-06-14T19:02:49.707Z,3.2
2018-06-14T19:04:50.002Z,4.4
2018-06-14T19:06:50.309Z,3.4
2018-06-14T19:08:49.442Z,5.0
2018-06-14T19:10:49.613Z,5.0
2018-06-14T19:12:49.734Z,5.2
2018-06-14T19:14:49.915Z,3.2
2018-06-14T19:16:50.370Z,11.8
2018-06-14T19:18:49.546Z,11.8
2018-06-14T19:20:49.741Z,3.8
2018-06-14T19:22:49.935Z,3.4
2018-06-14T19:24:50.121Z,3.4
2018-06-14T19:26:50.421Z,4.0
2018-06-14T19:28:49.570Z,3.2
2018-06-14T19:30:49.835Z,3.2
2018-06-14T19:32:49.968Z,2.8
2018-06-14T19:34:50.337Z,5.9
2018-06-14T19:36:49.538Z,3.0
2018-06-14T19:38:49.682Z,8.5
2018-06-14T19:40:49.783Z,5.3
2018-06-14T19:42:50.056Z,5.3
2018-06-14T19:44:50.195Z,3.0
2018-06-14T19:46:49.560Z,3.0
2018-06-14T19:48:49.752Z,3.2
2018-06-14T19:50:49.992Z,4.0
2018-06-14T19:52:50.159Z,4.0
2018-06-14T19:54:50.299Z,4.2
2018-06-14T19:56:50.099Z,4.0
2018-06-14T19:58:50.265Z,3.4
2018-06-14T20:00:50.432Z,3.4
2018-06-14T20:02:49.711Z,2.8
2018-06-14T20:04:50.259Z,3.7
2018-06-14T20:06:49.500Z,5.1
2018-06-14T20:08:49.683Z,5.1
2018-06-14T20:10:49.875Z,4.5
2018-06-14T20:12:49.976Z,8.7
2018-06-14T20:14:50.127Z,14.0
2018-06-14T20:16:49.502Z,8.3
2018-06-14T20:18:49.607Z,8.3
2018-06-14T20:20:49.761Z,7.4
2018-06-14T20:22:49.440Z,3.2
2018-06-14T20:24:49.523Z,3.4
2018-06-14T20:26:49.812Z,5.7
2018-06-14T20:28:50.033Z,5.7
2018-06-14T20:30:50.397Z,3.7
2018-06-14T20:32:49.578Z,5.0
2018-06-14T20:34:50.068Z,4.7
2018-06-14T20:36:50.334Z,4.1
2018-06-14T20:38:49.568Z,4.1
2018-06-14T20:40:49.702Z,5.2
2018-06-14T20:42:49.863Z,5.2
2018-06-14T20:44:50.180Z,4.1
2018-06-14T20:46:50.451Z,4.1
2018-06-14T20:48:49.676Z,3.7
2018-06-14T20:50:50.316Z,5.0
2018-06-14T20:52:50.428Z,5.7
2018-06-14T20:54:49.611Z,3.4
2018-06-14T20:56:49.874Z,3.4
2018-06-14T20:58:50.031Z,5.9
2018-06-14T21:00:50.219Z,4.0
2018-06-14T21:02:50.405Z,4.0
2018-06-14T21:04:49.716Z,3.8
2018-06-14T21:06:49.965Z,3.8
2018-06-14T21:08:50.154Z,4.2
2018-06-14T21:10:50.293Z,4.2
2018-06-14T21:12:49.495Z,4.1
2018-06-14T21:14:49.623Z,4.5
2018-06-14T21:16:49.776Z,4.5
2018-06-14T21:18:49.951Z,5.1
2018-06-14T21:20:50.132Z,4.5
2018-06-14T21:22:49.847Z,4.5
2018-06-14T21:24:49.964Z,4.8
2018-06-14T21:26:50.215Z,4.8
2018-06-14T21:28:50.342Z,5.5
2018-06-14T21:30:49.500Z,4.9
2018-06-14T21:32:49.653Z,4.9
2018-06-14T21:34:49.972Z,4.7
2018-06-14T21:36:50.297Z,4.7
2018-06-14T21:38:50.388Z,5.4
2018-06-14T21:40:49.518Z,6.7
2018-06-14T21:42:49.637Z,5.0
2018-06-14T21:44:49.779Z,5.0
2018-06-14T21:46:50.008Z,5.0
2018-06-14T21:48:50.196Z,5.4
2018-06-14T21:50:50.364Z,7.2
2018-06-14T21:52:49.609Z,5.3
2018-06-14T21:54:49.741Z,5.3
2018-06-14T21:56:50.002Z,5.8
2018-06-14T21:58:50.157Z,5.4
2018-06-14T22:00:50.267Z,5.3
2018-06-14T22:02:50.353Z,7.2
2018-06-14T22:04:49.839Z,7.2
2018-06-14T22:06:50.108Z,6.7
2018-06-14T22:08:50.255Z,6.9
2018-06-14T22:10:49.466Z,5.1
2018-06-14T22:12:49.701Z,5.1
2018-06-14T22:14:49.841Z,7.7
2018-06-14T22:16:50.020Z,6.7
2018-06-14T22:18:50.153Z,7.5
2018-06-14T22:20:50.276Z,9.6
2018-06-14T22:22:50.429Z,9.6
2018-06-14T22:24:49.531Z,9.5
2018-06-14T22:26:49.732Z,8.2
2018-06-14T22:28:49.889Z,8.0
2018-06-14T22:30:50.033Z,8.0
2018-06-14T22:32:50.139Z,7.9
2018-06-14T22:34:49.464Z,7.9
2018-06-14T22:36:49.494Z,7.9
2018-06-14T22:38:49.608Z,9.8
2018-06-14T22:40:49.867Z,8.0
2018-06-14T22:42:50.093Z,8.0
2018-06-14T22:44:50.312Z,8.0
2018-06-14T22:46:49.609Z,8.1
2018-06-14T22:48:49.739Z,8.5
2018-06-14T22:50:49.882Z,7.6
2018-06-14T22:52:50.349Z,7.6
2018-06-14T22:54:50.043Z,10.7
2018-06-14T22:56:50.340Z,12.2
2018-06-14T22:58:49.465Z,10.5
2018-06-14T23:00:49.693Z,11.0
2018-06-14T23:02:49.864Z,11.0
2018-06-14T23:04:50.200Z,7.6
2018-06-14T23:06:49.708Z,6.9
2018-06-14T23:08:49.883Z,7.3
2018-06-14T23:10:50.002Z,7.1
2018-06-14T23:12:49.915Z,7.1
2018-06-14T23:14:50.081Z,6.5
2018-06-14T23:16:50.361Z,6.5
2018-06-14T23:18:49.483Z,6.5
2018-06-14T23:20:49.689Z,7.5
2018-06-14T23:22:49.859Z,6.7
2018-06-14T23:24:50.030Z,6.7
2018-06-14T23:26:50.267Z,7.2
2018-06-14T23:28:50.415Z,7.3
2018-06-14T23:30:49.517Z,7.3
2018-06-14T23:32:49.675Z,7.1
2018-06-14T23:34:49.966Z,8.3
2018-06-14T23:36:50.268Z,7.0
2018-06-14T23:38:50.397Z,7.0
2018-06-14T23:40:49.534Z,6.7
2018-06-14T23:42:49.751Z,8.2
2018-06-14T23:44:49.916Z,8.2
2018-06-14T23:46:50.416Z,7.7
2018-06-14T23:48:49.572Z,7.5
2018-06-14T23:50:49.718Z,7.5
2018-06-14T23:52:49.921Z,7.8
2018-06-14T23:54:50.098Z,8.4
2018-06-14T23:56:50.278Z,7.9
2018-06-14T23:58:49.491Z,7.5
